createdAt,value
2022-09-27T00:00:02.631Z,51.50
2022-09-27T00:01:02.651Z,51.51
2022-09-27T00:02:02.671Z,51.50
2022-09-27T00:03:02.635Z,51.50
2022-09-27T00:04:02.567Z,51.59
2022-09-27T00:05:02.557Z,51.50
2022-09-27T00:06:02.546Z,51.59
2022-09-27T00:07:02.539Z,51.50
2022-09-27T00:08:02.547Z,51.50
2022-09-27T00:09:02.517Z,51.59
2022-09-27T00:10:02.497Z,51.59
2022-09-27T00:11:02.487Z,51.59
2022-09-27T00:12:02.477Z,51.70
2022-09-27T00:13:02.469Z,51.70
2022-09-27T00:14:02.480Z,51.50
2022-09-27T00:15:03.215Z,51.59
2022-09-27T00:16:02.459Z,51.59
2022-09-27T00:17:02.425Z,51.59
2022-09-27T00:18:02.408Z,51.59
2022-09-27T00:19:02.397Z,51.70
2022-09-27T00:20:02.407Z,51.70
2022-09-27T00:21:02.377Z,51.70
2022-09-27T00:22:02.361Z,51.80
2022-09-27T00:23:02.357Z,51.70
2022-09-27T00:24:02.337Z,51.70
2022-09-27T00:25:02.326Z,51.80
2022-09-27T00:26:02.397Z,51.80
2022-09-27T00:27:02.306Z,51.80
2022-09-27T00:28:02.298Z,51.80
2022-09-27T00:29:02.286Z,51.90
2022-09-27T00:30:02.281Z,52.00
2022-09-27T00:31:02.352Z,52.00
2022-09-27T00:32:02.271Z,52.03
2022-09-27T00:33:02.238Z,52.13
2022-09-27T00:34:02.226Z,52.03
2022-09-27T00:35:02.223Z,52.13
2022-09-27T00:36:02.201Z,52.23
2022-09-27T00:37:02.215Z,52.13
2022-09-27T00:38:02.177Z,52.03
2022-09-27T00:39:02.168Z,52.13
2022-09-27T00:40:02.159Z,52.23
2022-09-27T00:41:02.219Z,52.13
2022-09-27T00:42:02.137Z,52.03
2022-09-27T00:43:02.151Z,52.23
2022-09-27T00:44:02.107Z,52.23
2022-09-27T00:45:02.097Z,52.23
2022-09-27T00:46:02.144Z,52.23
2022-09-27T00:47:02.081Z,52.23
2022-09-27T00:48:02.070Z,52.23
2022-09-27T00:49:02.077Z,52.23
2022-09-27T00:50:02.049Z,52.34
2022-09-27T00:51:02.037Z,52.23
2022-09-27T00:52:02.018Z,52.23
2022-09-27T00:53:02.009Z,52.23
2022-09-27T00:54:01.996Z,52.23
2022-09-27T00:55:02.007Z,52.34
2022-09-27T00:56:01.968Z,52.34
2022-09-27T00:57:01.967Z,52.34
2022-09-27T00:58:01.952Z,52.34
2022-09-27T00:59:01.945Z,52.23
2022-09-27T01:00:01.981Z,52.34
2022-09-27T01:01:02.226Z,52.34
2022-09-27T01:02:01.905Z,52.23
2022-09-27T01:03:01.943Z,52.23
2022-09-27T01:04:01.878Z,52.34
2022-09-27T01:05:01.869Z,52.34
2022-09-27T01:06:01.862Z,52.34
2022-09-27T01:07:01.867Z,52.23
2022-09-27T01:08:01.828Z,52.34
2022-09-27T01:09:01.833Z,52.34
2022-09-27T01:10:01.811Z,52.23
2022-09-27T01:11:01.807Z,52.23
2022-09-27T01:12:01.809Z,52.34
2022-09-27T01:13:01.777Z,52.34
2022-09-27T01:14:01.769Z,52.34
2022-09-27T01:15:01.757Z,52.34
2022-09-27T01:16:01.794Z,52.44
2022-09-27T01:17:01.737Z,52.34
2022-09-27T01:18:01.742Z,52.34
2022-09-27T01:19:01.708Z,52.44
2022-09-27T01:20:01.697Z,52.34
2022-09-27T01:21:01.688Z,52.44
2022-09-27T01:22:01.677Z,52.44
2022-09-27T01:23:01.668Z,52.44
2022-09-27T01:24:01.669Z,52.34
2022-09-27T01:25:01.647Z,52.44
2022-09-27T01:26:01.629Z,52.44
2022-09-27T01:27:01.619Z,52.44
2022-09-27T01:28:01.608Z,52.34
2022-09-27T01:29:01.597Z,52.44
2022-09-27T01:30:01.599Z,52.54
2022-09-27T01:31:01.637Z,52.54
2022-09-27T01:32:01.560Z,52.44
2022-09-27T01:33:01.556Z,52.54
2022-09-27T01:34:01.541Z,52.44
2022-09-27T01:35:01.549Z,52.54
2022-09-27T01:36:01.517Z,52.44
2022-09-27T01:37:01.506Z,52.44
2022-09-27T01:38:01.487Z,52.34
2022-09-27T01:39:01.478Z,52.44
2022-09-27T01:40:01.471Z,52.44
2022-09-27T01:41:01.602Z,52.34
2022-09-27T01:42:01.439Z,52.34
2022-09-27T01:43:01.437Z,52.34
2022-09-27T01:44:01.420Z,52.34
2022-09-27T01:45:01.408Z,52.34
2022-09-27T01:46:01.481Z,52.34
2022-09-27T01:47:01.388Z,52.34
2022-09-27T01:48:01.372Z,52.34
2022-09-27T01:49:01.367Z,52.34
2022-09-27T01:50:01.347Z,52.54
2022-09-27T01:51:01.346Z,52.44
2022-09-27T01:52:01.348Z,52.54
2022-09-27T01:53:01.329Z,52.54
2022-09-27T01:54:01.311Z,52.54
2022-09-27T01:55:01.300Z,52.54
2022-09-27T01:56:01.277Z,52.54
2022-09-27T01:57:01.269Z,52.64
2022-09-27T01:58:01.278Z,52.64
2022-09-27T01:59:01.247Z,52.64
2022-09-27T02:00:01.238Z,52.85
2022-09-27T02:01:01.265Z,52.64
2022-09-27T02:02:01.218Z,52.64
2022-09-27T02:03:01.287Z,52.64
2022-09-27T02:04:01.198Z,52.64
2022-09-27T02:05:01.186Z,52.64
2022-09-27T02:06:01.168Z,52.64
2022-09-27T02:07:01.158Z,52.75
2022-09-27T02:08:01.147Z,52.75
2022-09-27T02:09:01.168Z,52.85
2022-09-27T02:10:01.166Z,52.85
2022-09-27T02:11:01.118Z,52.85
2022-09-27T02:12:01.099Z,52.75
2022-09-27T02:13:01.091Z,52.85
2022-09-27T02:14:01.079Z,52.85
2022-09-27T02:15:01.101Z,52.95
2022-09-27T02:16:01.099Z,52.85
2022-09-27T02:17:01.046Z,52.95
2022-09-27T02:18:01.031Z,52.95
2022-09-27T02:19:01.018Z,52.95
2022-09-27T02:20:01.010Z,53.05
2022-09-27T02:21:01.034Z,53.05
2022-09-27T02:22:00.989Z,53.05
2022-09-27T02:23:00.977Z,53.16
2022-09-27T02:24:00.966Z,53.36
2022-09-27T02:25:00.957Z,53.26
2022-09-27T02:26:00.948Z,53.36
2022-09-27T02:27:00.950Z,53.46
2022-09-27T02:28:00.918Z,53.46
2022-09-27T02:29:00.908Z,53.56
2022-09-27T02:30:00.898Z,53.77
2022-09-27T02:31:00.960Z,53.77
2022-09-27T02:32:00.880Z,53.77
2022-09-27T02:33:00.882Z,53.87
2022-09-27T02:34:00.859Z,53.97
2022-09-27T02:35:00.838Z,54.28
2022-09-27T02:36:00.831Z,54.38
2022-09-27T02:37:00.817Z,54.90
2022-09-27T02:38:00.808Z,55.00
2022-09-27T02:39:00.812Z,55.21
2022-09-27T02:40:00.782Z,55.21
2022-09-27T02:41:00.829Z,55.51
2022-09-27T02:42:00.760Z,55.82
2022-09-27T02:43:00.753Z,56.13
2022-09-27T02:44:00.740Z,56.23
2022-09-27T02:45:00.739Z,56.43
2022-09-27T02:46:00.782Z,56.43
2022-09-27T02:47:00.699Z,56.64
2022-09-27T02:48:00.689Z,57.15
2022-09-27T02:49:00.675Z,57.35
2022-09-27T02:50:00.690Z,57.25
2022-09-27T02:51:00.657Z,57.46
2022-09-27T02:52:00.647Z,57.97
2022-09-27T02:53:00.629Z,58.48
2022-09-27T02:54:00.628Z,58.79
2022-09-27T02:55:00.607Z,58.89
2022-09-27T02:56:00.618Z,59.09
2022-09-27T02:57:00.588Z,59.30
2022-09-27T02:58:00.590Z,59.41
2022-09-27T02:59:00.570Z,59.61
2022-09-27T03:00:00.565Z,60.12
2022-09-27T03:01:00.580Z,60.63
2022-09-27T03:02:00.749Z,60.74
2022-09-27T03:03:00.557Z,61.15
2022-09-27T03:04:00.509Z,61.35
2022-09-27T03:05:00.490Z,61.45
2022-09-27T03:06:00.490Z,61.45
2022-09-27T03:07:00.521Z,61.35
2022-09-27T03:08:00.460Z,61.55
2022-09-27T03:09:00.458Z,61.76
2022-09-27T03:10:07.484Z,61.76
2022-09-27T03:11:00.424Z,61.96
2022-09-27T03:12:00.416Z,61.86
2022-09-27T03:13:00.424Z,62.17
2022-09-27T03:14:09.158Z,62.27
2022-09-27T03:15:01.394Z,62.27
2022-09-27T03:16:01.701Z,62.58
2022-09-27T03:17:00.481Z,62.68
2022-09-27T03:18:00.346Z,62.37
2022-09-27T03:19:00.365Z,62.48
2022-09-27T03:20:00.330Z,62.78
2022-09-27T03:21:00.322Z,62.68
2022-09-27T03:22:00.313Z,62.68
2022-09-27T03:23:00.288Z,63.09
2022-09-27T03:24:00.296Z,62.99
2022-09-27T03:25:00.312Z,63.20
2022-09-27T03:26:00.261Z,63.20
2022-09-27T03:27:00.245Z,63.09
2022-09-27T03:28:00.235Z,63.09
2022-09-27T03:29:00.225Z,63.70
2022-09-27T03:30:00.222Z,63.91
2022-09-27T03:31:00.283Z,64.42
2022-09-27T03:32:00.227Z,64.32
2022-09-27T03:33:00.245Z,64.22
2022-09-27T03:34:00.165Z,65.24
2022-09-27T03:35:00.155Z,65.27
2022-09-27T03:36:00.145Z,65.17
2022-09-27T03:37:00.157Z,65.17
2022-09-27T03:38:00.115Z,65.24
2022-09-27T03:39:00.114Z,65.24
2022-09-27T03:40:00.138Z,64.62
2022-09-27T03:41:00.900Z,64.62
2022-09-27T03:42:00.097Z,64.42
2022-09-27T03:43:00.094Z,64.01
2022-09-27T03:44:00.069Z,63.60
2022-09-27T03:45:00.034Z,63.64
2022-09-27T03:46:00.086Z,63.94
2022-09-27T03:47:00.020Z,64.04
2022-09-27T03:48:00.007Z,63.94
2022-09-27T03:49:00.015Z,64.14
2022-09-27T03:49:59.985Z,64.04
2022-09-27T03:50:59.990Z,63.94
2022-09-27T03:51:59.976Z,64.14
2022-09-27T03:52:59.949Z,64.14
2022-09-27T03:53:59.936Z,63.94
2022-09-27T03:55:02.135Z,64.14
2022-09-27T03:55:59.921Z,64.25
2022-09-27T03:56:59.898Z,65.48
2022-09-27T03:57:59.893Z,65.51
2022-09-27T03:58:59.885Z,66.19
2022-09-27T03:59:59.898Z,66.53
2022-09-27T04:00:59.899Z,66.63
2022-09-27T04:01:59.849Z,66.63
2022-09-27T04:02:59.908Z,67.05
2022-09-27T04:03:59.835Z,67.35
2022-09-27T04:04:59.809Z,68.48
2022-09-27T04:05:59.816Z,68.79
2022-09-27T04:06:59.785Z,68.38
2022-09-27T04:07:59.776Z,68.59
2022-09-27T04:08:59.757Z,69.10
2022-09-27T04:09:59.755Z,68.89
2022-09-27T04:10:59.743Z,68.59
2022-09-27T04:11:59.747Z,68.38
2022-09-27T04:12:59.725Z,68.07
2022-09-27T04:13:59.708Z,67.97
2022-09-27T04:14:59.716Z,68.07
2022-09-27T04:15:59.714Z,68.17
2022-09-27T04:16:59.751Z,68.07
2022-09-27T04:17:59.668Z,67.97
2022-09-27T04:18:59.649Z,67.66
2022-09-27T04:19:59.634Z,67.46
2022-09-27T04:20:59.627Z,67.05
2022-09-27T04:21:59.614Z,66.94
2022-09-27T04:22:59.623Z,66.63
2022-09-27T04:23:59.595Z,66.53
2022-09-27T04:24:59.575Z,66.22
2022-09-27T04:25:59.565Z,66.33
2022-09-27T04:26:59.554Z,66.12
2022-09-27T04:27:59.545Z,66.36
2022-09-27T04:28:59.554Z,66.36
2022-09-27T04:29:59.525Z,65.92
2022-09-27T04:30:59.586Z,65.81
2022-09-27T04:31:59.505Z,65.61
2022-09-27T04:32:59.485Z,65.51
2022-09-27T04:33:59.476Z,65.61
2022-09-27T04:34:59.485Z,65.61
2022-09-27T04:35:59.455Z,65.71
2022-09-27T04:36:59.435Z,65.81
2022-09-27T04:37:59.435Z,65.41
2022-09-27T04:38:59.415Z,65.20
2022-09-27T04:39:59.407Z,65.81
2022-09-27T04:40:59.473Z,65.95
2022-09-27T04:41:59.386Z,66.22
2022-09-27T04:42:59.366Z,66.43
2022-09-27T04:43:59.635Z,66.63
2022-09-27T04:44:59.345Z,67.14
2022-09-27T04:45:59.375Z,67.14
2022-09-27T04:46:59.370Z,67.56
2022-09-27T04:47:59.315Z,67.25
2022-09-27T04:48:59.314Z,67.90
2022-09-27T04:49:59.295Z,68.00
2022-09-27T04:50:59.285Z,67.69
2022-09-27T04:51:59.273Z,67.35
2022-09-27T04:52:59.276Z,67.05
2022-09-27T04:53:59.245Z,67.46
2022-09-27T04:54:59.233Z,67.46
2022-09-27T04:55:59.225Z,67.25
2022-09-27T04:56:59.206Z,66.84
2022-09-27T04:57:59.215Z,66.53
2022-09-27T04:58:59.206Z,65.92
2022-09-27T04:59:59.194Z,66.02
2022-09-27T05:00:59.214Z,65.51
2022-09-27T05:01:59.155Z,65.20
2022-09-27T05:02:59.209Z,65.41
2022-09-27T05:03:59.135Z,65.41
2022-09-27T05:04:59.135Z,65.20
2022-09-27T05:05:59.105Z,64.79
2022-09-27T05:06:59.085Z,64.69
2022-09-27T05:07:59.085Z,64.59
2022-09-27T05:08:59.075Z,64.20
2022-09-27T05:09:59.064Z,64.00
2022-09-27T05:10:59.068Z,63.90
2022-09-27T05:11:59.036Z,64.00
2022-09-27T05:12:59.025Z,63.79
2022-09-27T05:13:59.015Z,63.49
2022-09-27T05:14:59.008Z,63.28
2022-09-27T05:15:59.065Z,63.28
2022-09-27T05:16:59.046Z,63.18
2022-09-27T05:17:58.986Z,63.39
2022-09-27T05:18:58.954Z,63.69
2022-09-27T05:19:58.945Z,63.69
2022-09-27T05:20:58.937Z,64.00
2022-09-27T05:21:58.930Z,64.00
2022-09-27T05:22:58.923Z,64.10
2022-09-27T05:23:58.904Z,64.10
2022-09-27T05:24:58.887Z,64.10
2022-09-27T05:25:58.876Z,64.51
2022-09-27T05:26:58.865Z,64.61
2022-09-27T05:27:58.876Z,64.72
2022-09-27T05:28:58.843Z,64.61
2022-09-27T05:29:58.835Z,64.41
2022-09-27T05:30:58.843Z,64.72
2022-09-27T05:31:58.805Z,64.72
2022-09-27T05:32:58.798Z,64.72
2022-09-27T05:33:58.804Z,64.72
2022-09-27T05:34:58.774Z,64.61
2022-09-27T05:35:58.765Z,64.31
2022-09-27T05:36:58.764Z,64.00
2022-09-27T05:37:58.748Z,63.90
2022-09-27T05:38:58.755Z,64.10
2022-09-27T05:39:58.725Z,63.90
2022-09-27T05:40:58.754Z,63.79
2022-09-27T05:41:58.695Z,63.79
2022-09-27T05:42:58.675Z,64.00
2022-09-27T05:43:58.675Z,64.41
2022-09-27T05:44:58.676Z,64.72
2022-09-27T05:45:58.716Z,64.72
2022-09-27T05:46:58.635Z,64.82
2022-09-27T05:47:58.625Z,65.12
2022-09-27T05:48:58.634Z,65.64
2022-09-27T05:49:58.625Z,65.54
2022-09-27T05:50:58.629Z,65.64
2022-09-27T05:51:58.590Z,65.74
2022-09-27T05:52:58.599Z,66.36
2022-09-27T05:53:58.600Z,66.56
2022-09-27T05:54:58.545Z,66.77
2022-09-27T05:55:58.595Z,66.77
2022-09-27T05:56:58.545Z,66.97
2022-09-27T05:57:58.531Z,67.08
2022-09-27T05:58:58.496Z,66.87
2022-09-27T05:59:58.508Z,67.08
2022-09-27T06:00:58.475Z,67.28
2022-09-27T06:01:58.573Z,67.28
2022-09-27T06:02:58.566Z,67.14
2022-09-27T06:03:58.477Z,66.94
2022-09-27T06:04:58.434Z,66.33
2022-09-27T06:05:58.435Z,66.12
2022-09-27T06:06:58.418Z,65.71
2022-09-27T06:07:58.425Z,65.81
2022-09-27T06:09:58.419Z,65.81
2022-09-27T06:10:58.357Z,65.92
2022-09-27T06:11:58.385Z,65.51
2022-09-27T06:12:58.354Z,66.12
2022-09-27T06:13:58.365Z,65.51
2022-09-27T06:14:58.329Z,65.61
2022-09-27T06:15:58.309Z,66.22
2022-09-27T06:16:58.323Z,66.43
2022-09-27T06:17:58.315Z,67.14
2022-09-27T06:18:58.267Z,66.84
2022-09-27T06:19:58.321Z,66.84
2022-09-27T06:20:58.247Z,66.74
2022-09-27T06:21:58.245Z,66.63
2022-09-27T06:22:58.235Z,67.35
2022-09-27T06:23:58.227Z,67.35
2022-09-27T06:24:58.242Z,66.43
2022-09-27T06:25:58.205Z,67.14
2022-09-27T06:26:58.177Z,66.84
2022-09-27T06:27:58.190Z,67.46
2022-09-27T06:28:58.162Z,66.84
2022-09-27T06:29:58.155Z,66.33
2022-09-27T06:30:58.242Z,65.71
2022-09-27T06:31:58.151Z,65.37
2022-09-27T06:32:58.111Z,65.78
2022-09-27T06:33:58.106Z,65.48
2022-09-27T06:34:58.085Z,65.68
2022-09-27T06:35:58.107Z,66.71
2022-09-27T06:36:58.066Z,66.71
2022-09-27T06:37:58.046Z,67.02
2022-09-27T06:38:58.075Z,67.32
2022-09-27T06:39:58.054Z,67.73
2022-09-27T06:40:58.128Z,68.35
2022-09-27T06:41:58.038Z,68.45
2022-09-27T06:42:57.996Z,68.86
2022-09-27T06:43:58.020Z,69.98
2022-09-27T06:44:57.975Z,70.50
2022-09-27T06:45:58.040Z,71.42
2022-09-27T06:46:57.974Z,72.14
2022-09-27T06:47:57.956Z,72.34
2022-09-27T06:48:57.976Z,72.65
2022-09-27T06:49:57.934Z,73.78
2022-09-27T06:50:57.970Z,74.90
2022-09-27T06:51:57.916Z,75.07
2022-09-27T06:52:57.886Z,76.81
2022-09-27T06:53:57.903Z,76.40
2022-09-27T06:54:57.855Z,77.94
2022-09-27T06:55:57.846Z,78.86
2022-09-27T06:57:02.241Z,78.86
2022-09-27T06:57:57.824Z,80.19
2022-09-27T06:58:57.834Z,80.81
2022-09-27T06:59:57.853Z,81.52
2022-09-27T07:00:57.815Z,81.32
2022-09-27T07:01:57.840Z,82.24
2022-09-27T07:02:57.776Z,82.35
2022-09-27T07:03:57.756Z,81.73
2022-09-27T07:04:57.746Z,81.73
2022-09-27T07:05:58.024Z,82.96
2022-09-27T07:06:57.727Z,82.86
2022-09-27T07:07:57.732Z,83.17
2022-09-27T07:08:57.725Z,82.96
2022-09-27T07:09:57.683Z,82.65
2022-09-27T07:10:57.677Z,83.68
2022-09-27T07:11:57.700Z,83.58
2022-09-27T07:12:57.657Z,83.27
2022-09-27T07:13:57.637Z,83.78
2022-09-27T07:14:57.625Z,84.19
2022-09-27T07:15:57.606Z,84.50
2022-09-27T07:16:57.657Z,84.91
2022-09-27T07:17:57.639Z,84.70
2022-09-27T07:18:57.586Z,85.01
2022-09-27T07:19:57.715Z,85.11
2022-09-27T07:21:00.275Z,83.68
2022-09-27T07:21:57.546Z,82.65
2022-09-27T07:22:57.582Z,83.47
2022-09-27T07:23:57.578Z,84.80
2022-09-27T07:24:57.505Z,85.72
2022-09-27T07:25:57.497Z,85.01
2022-09-27T07:26:57.497Z,85.01
2022-09-27T07:27:57.505Z,86.04
2022-09-27T07:28:57.496Z,86.14
2022-09-27T07:29:57.458Z,85.31
2022-09-27T07:30:57.533Z,85.93
2022-09-27T07:31:57.426Z,87.47
2022-09-27T07:32:57.424Z,87.22
2022-09-27T07:33:57.429Z,87.22
2022-09-27T07:34:57.418Z,88.86
2022-09-27T07:35:57.387Z,89.98
2022-09-27T07:36:57.426Z,89.17
2022-09-27T07:37:57.391Z,89.94
2022-09-27T07:38:57.389Z,90.56
2022-09-27T07:39:57.368Z,92.10
2022-09-27T07:40:57.413Z,93.32
2022-09-27T07:41:57.378Z,93.38
2022-09-27T07:42:57.307Z,94.40
2022-09-27T07:43:57.300Z,95.53
2022-09-27T07:44:57.285Z,96.20
2022-09-27T07:45:57.312Z,96.00
2022-09-27T07:46:57.288Z,95.79
2022-09-27T07:47:57.246Z,97.02
2022-09-27T07:48:57.246Z,96.81
2022-09-27T07:49:57.233Z,96.41
2022-09-27T07:50:57.217Z,97.38
2022-09-27T07:51:57.199Z,98.50
2022-09-27T07:52:57.221Z,97.17
2022-09-27T07:53:57.178Z,99.73
2022-09-27T07:54:57.176Z,99.58
2022-09-27T07:55:57.155Z,99.99
2022-09-27T07:56:57.146Z,99.54
2022-09-27T07:57:57.144Z,99.99
2022-09-27T07:58:57.186Z,99.99
2022-09-27T07:59:57.117Z,99.99
2022-09-27T08:00:57.177Z,99.99
2022-09-27T08:01:57.123Z,99.99
2022-09-27T08:02:57.076Z,99.99
2022-09-27T08:03:57.073Z,99.99
2022-09-27T08:04:57.067Z,99.99
2022-09-27T08:05:57.036Z,99.99
2022-09-27T08:06:57.037Z,99.99
2022-09-27T08:07:57.017Z,99.99
2022-09-27T08:08:57.047Z,99.99
2022-09-27T08:09:57.037Z,99.99
2022-09-27T08:10:56.989Z,99.99
2022-09-27T08:11:56.978Z,99.99
2022-09-27T08:12:57.001Z,99.99
2022-09-27T08:13:56.947Z,99.99
2022-09-27T08:14:56.948Z,99.99
2022-09-27T08:15:56.947Z,99.99
2022-09-27T08:16:56.915Z,99.99
2022-09-27T08:17:56.907Z,99.99
2022-09-27T08:18:56.909Z,99.99
2022-09-27T08:19:56.886Z,99.99
2022-09-27T08:20:56.867Z,99.99
2022-09-27T08:21:58.923Z,99.99
2022-09-27T08:22:56.881Z,99.99
2022-09-27T08:23:56.836Z,99.99
2022-09-27T08:24:56.843Z,99.99
2022-09-27T08:25:56.810Z,99.99
2022-09-27T08:26:56.799Z,99.99
2022-09-27T08:27:56.812Z,99.99
2022-09-27T08:28:56.802Z,99.99
2022-09-27T08:29:56.820Z,99.99
2022-09-27T08:30:56.762Z,99.99
2022-09-27T08:31:56.770Z,99.99
2022-09-27T08:32:56.745Z,99.99
2022-09-27T08:33:56.737Z,99.99
2022-09-27T08:34:56.723Z,99.99
2022-09-27T08:35:56.697Z,99.99
2022-09-27T08:36:56.690Z,99.99
2022-09-27T08:37:56.682Z,99.99
2022-09-27T08:38:56.690Z,99.99
2022-09-27T08:39:56.657Z,99.99
2022-09-27T08:40:56.669Z,99.99
2022-09-27T08:41:56.642Z,99.99
2022-09-27T08:42:56.623Z,99.99
2022-09-27T08:43:56.619Z,99.99
2022-09-27T08:45:00.959Z,99.99
2022-09-27T08:45:57.631Z,99.99
2022-09-27T08:46:56.569Z,99.99
2022-09-27T08:47:56.560Z,99.99
2022-09-27T08:48:56.550Z,99.99
2022-09-27T08:49:56.530Z,99.99
2022-09-27T08:50:56.553Z,99.99
2022-09-27T08:51:56.514Z,99.99
2022-09-27T08:52:57.110Z,99.99
2022-09-27T08:53:56.492Z,99.99
2022-09-27T08:54:56.521Z,99.99
2022-09-27T08:55:56.479Z,99.99
2022-09-27T08:56:56.470Z,99.99
2022-09-27T08:57:56.440Z,99.99
2022-09-27T08:58:56.459Z,99.99
2022-09-27T08:59:56.432Z,99.99
2022-09-27T09:00:56.438Z,99.99
2022-09-27T09:01:59.676Z,99.99
2022-09-27T09:02:56.389Z,99.99
2022-09-27T09:03:56.372Z,99.99
2022-09-27T09:04:56.368Z,99.99
2022-09-27T09:05:56.371Z,99.99
2022-09-27T09:06:56.341Z,99.99
2022-09-27T09:07:56.354Z,99.99
2022-09-27T09:08:56.320Z,99.99
2022-09-27T09:10:03.346Z,99.99
2022-09-27T09:10:56.456Z,99.99
2022-09-27T09:11:56.276Z,99.99
2022-09-27T09:12:56.265Z,99.99
2022-09-27T09:13:56.285Z,99.99
2022-09-27T09:14:56.246Z,99.99
2022-09-27T09:15:56.239Z,99.99
2022-09-27T09:16:56.226Z,99.99
2022-09-27T09:17:56.215Z,99.99
2022-09-27T09:18:56.210Z,99.16
2022-09-27T09:19:56.207Z,93.47
2022-09-27T09:20:56.186Z,94.13
2022-09-27T09:21:56.166Z,90.58
2022-09-27T09:22:56.166Z,92.67
2022-09-27T09:23:56.146Z,95.42
2022-09-27T09:24:56.127Z,93.55
2022-09-27T09:25:56.137Z,87.83
2022-09-27T09:26:57.691Z,80.59
2022-09-27T09:28:01.465Z,82.21
2022-09-27T09:28:57.097Z,86.22
2022-09-27T09:29:56.078Z,84.67
2022-09-27T09:30:56.094Z,80.21
2022-09-27T09:31:56.103Z,82.07
2022-09-27T09:32:56.047Z,80.11
2022-09-27T09:33:56.018Z,79.64
2022-09-27T09:34:56.020Z,80.35
2022-09-27T09:35:56.008Z,78.46
2022-09-27T09:36:56.020Z,78.30
2022-09-27T09:37:55.978Z,79.92
2022-09-27T09:38:55.970Z,78.94
2022-09-27T09:39:55.966Z,83.10
2022-09-27T09:40:55.963Z,80.26
2022-09-27T09:41:55.936Z,81.38
2022-09-27T09:42:55.949Z,83.85
2022-09-27T09:43:55.911Z,80.19
2022-09-27T09:44:55.922Z,82.64
2022-09-27T09:45:55.906Z,79.86
2022-09-27T09:46:55.881Z,82.54
2022-09-27T09:47:55.869Z,84.58
2022-09-27T09:48:55.879Z,86.41
2022-09-27T09:49:55.840Z,88.04
2022-09-27T09:50:55.841Z,85.70
2022-09-27T09:51:55.824Z,86.21
2022-09-27T09:52:55.810Z,87.63
2022-09-27T09:53:55.790Z,86.00
2022-09-27T09:54:55.809Z,88.13
2022-09-27T09:55:55.781Z,84.88
2022-09-27T09:56:55.764Z,85.60
2022-09-27T09:57:55.755Z,86.04
2022-09-27T09:58:55.741Z,82.93
2022-09-27T09:59:55.729Z,85.58
2022-09-27T10:00:55.775Z,88.36
2022-09-27T10:01:55.749Z,88.06
2022-09-27T10:02:55.700Z,91.31
2022-09-27T10:03:55.682Z,89.38
2022-09-27T10:04:55.674Z,89.18
2022-09-27T10:05:55.652Z,90.50
2022-09-27T10:06:55.660Z,89.69
2022-09-27T10:07:55.632Z,89.69
2022-09-27T10:08:55.623Z,89.48
2022-09-27T10:09:55.612Z,89.24
2022-09-27T10:10:55.604Z,90.25
2022-09-27T10:11:55.611Z,91.53
2022-09-27T10:12:55.572Z,89.30
2022-09-27T10:13:55.562Z,89.50
2022-09-27T10:14:55.561Z,87.12
2022-09-27T10:15:55.545Z,85.53
2022-09-27T10:16:55.532Z,83.40
2022-09-27T10:17:55.551Z,87.67
2022-09-27T10:18:55.513Z,86.86
2022-09-27T10:19:55.497Z,85.84
2022-09-27T10:20:55.495Z,86.25
2022-09-27T10:21:55.471Z,86.35
2022-09-27T10:22:55.462Z,85.23
2022-09-27T10:23:55.504Z,84.82
2022-09-27T10:24:55.442Z,84.28
2022-09-27T10:25:55.434Z,85.29
2022-09-27T10:26:55.414Z,85.90
2022-09-27T10:27:55.442Z,87.23
2022-09-27T10:28:55.393Z,86.71
2022-09-27T10:29:55.434Z,85.46
2022-09-27T10:30:55.373Z,85.15
2022-09-27T10:31:55.403Z,83.32
2022-09-27T10:32:55.360Z,87.18
2022-09-27T10:33:55.333Z,84.03
2022-09-27T10:34:55.324Z,85.35
2022-09-27T10:35:55.332Z,83.76
2022-09-27T10:36:55.314Z,86.88
2022-09-27T10:37:55.297Z,88.20
2022-09-27T10:38:55.281Z,86.74
2022-09-27T10:39:55.264Z,84.60
2022-09-27T10:40:55.355Z,81.86
2022-09-27T10:41:55.243Z,85.62
2022-09-27T10:42:55.233Z,84.50
2022-09-27T10:43:55.223Z,84.50
2022-09-27T10:44:55.213Z,83.08
2022-09-27T10:45:55.237Z,84.56
2022-09-27T10:46:55.236Z,79.90
2022-09-27T10:47:55.176Z,83.28
2022-09-27T10:48:55.174Z,83.18
2022-09-27T10:49:55.164Z,81.96
2022-09-27T10:50:58.712Z,83.69
2022-09-27T10:51:55.128Z,80.64
2022-09-27T10:52:55.244Z,81.35
2022-09-27T10:53:55.104Z,82.26
2022-09-27T10:54:55.094Z,82.87
2022-09-27T10:55:55.084Z,81.52
2022-09-27T10:56:55.067Z,79.90
2022-09-27T10:57:55.068Z,77.36
2022-09-27T10:58:55.235Z,77.86
2022-09-27T10:59:55.043Z,75.02
2022-09-27T11:00:55.060Z,75.32
2022-09-27T11:01:55.015Z,75.09
2022-09-27T11:02:55.007Z,75.73
2022-09-27T11:03:54.996Z,72.14
2022-09-27T11:04:55.054Z,74.38
2022-09-27T11:05:54.966Z,74.58
2022-09-27T11:06:54.955Z,75.15
2022-09-27T11:07:54.946Z,72.72
2022-09-27T11:08:54.939Z,73.73
2022-09-27T11:09:54.916Z,70.28
2022-09-27T11:10:54.926Z,71.00
2022-09-27T11:11:54.897Z,71.09
2022-09-27T11:12:54.886Z,71.06
2022-09-27T11:13:54.880Z,72.45
2022-09-27T11:14:54.858Z,71.03
2022-09-27T11:15:54.911Z,70.72
2022-09-27T11:16:54.848Z,70.52
2022-09-27T11:17:54.827Z,71.70
2022-09-27T11:18:54.817Z,71.67
2022-09-27T11:19:54.807Z,70.76
2022-09-27T11:20:54.796Z,70.96
2022-09-27T11:21:54.807Z,71.57
2022-09-27T11:22:54.767Z,71.03
2022-09-27T11:23:54.765Z,69.41
2022-09-27T11:24:54.749Z,71.33
2022-09-27T11:25:54.738Z,70.15
2022-09-27T11:26:54.734Z,70.56
2022-09-27T11:27:54.738Z,73.83
2022-09-27T11:28:54.699Z,74.74
2022-09-27T11:29:54.696Z,77.72
2022-09-27T11:30:54.688Z,78.56
2022-09-27T11:31:54.714Z,81.10
2022-09-27T11:32:54.658Z,84.89
2022-09-27T11:33:54.698Z,83.77
2022-09-27T11:34:54.643Z,83.87
2022-09-27T11:35:54.639Z,83.31
2022-09-27T11:36:54.846Z,84.63
2022-09-27T11:37:54.611Z,88.38
2022-09-27T11:38:55.758Z,86.96
2022-09-27T11:39:54.608Z,90.61
2022-09-27T11:40:54.607Z,89.80
2022-09-27T11:41:54.561Z,87.77
2022-09-27T11:42:54.540Z,84.42
2022-09-27T11:43:54.540Z,87.37
2022-09-27T11:45:19.536Z,86.00
2022-09-27T11:46:15.419Z,88.23
2022-09-27T11:46:55.553Z,85.30
2022-09-27T11:47:54.642Z,84.78
2022-09-27T11:48:54.471Z,84.95
2022-09-27T11:49:54.471Z,87.79
2022-09-27T11:50:54.452Z,85.72
2022-09-27T11:51:54.463Z,78.83
2022-09-27T11:52:54.430Z,78.22
2022-09-27T11:53:54.559Z,79.24
2022-09-27T11:54:54.412Z,80.76
2022-09-27T11:55:54.401Z,80.86
2022-09-27T11:56:54.412Z,81.10
2022-09-27T11:57:54.384Z,80.19
2022-09-27T11:58:54.375Z,78.36
2022-09-27T11:59:54.364Z,77.25
2022-09-27T12:00:54.341Z,76.74
2022-09-27T12:01:54.368Z,79.78
2022-09-27T12:02:54.465Z,76.27
2022-09-27T12:03:54.321Z,72.55
2022-09-27T12:04:54.301Z,75.52
2022-09-27T12:05:58.129Z,78.27
2022-09-27T12:06:54.274Z,84.40
2022-09-27T12:07:54.272Z,82.87
2022-09-27T12:08:54.272Z,83.28
2022-09-27T12:09:54.244Z,84.34
2022-09-27T12:10:54.233Z,84.23
2022-09-27T12:11:54.220Z,85.46
2022-09-27T12:12:54.204Z,86.88
2022-09-27T12:13:54.206Z,84.13
2022-09-27T12:14:54.212Z,85.86
2022-09-27T12:15:54.228Z,86.07
2022-09-27T12:16:54.161Z,87.89
2022-09-27T12:17:54.153Z,80.78
2022-09-27T12:18:54.143Z,85.25
2022-09-27T12:19:54.137Z,86.02
2022-09-27T12:20:54.135Z,84.70
2022-09-27T12:21:54.103Z,83.95
2022-09-27T12:22:59.176Z,81.76
2022-09-27T12:23:55.084Z,83.34
2022-09-27T12:24:54.074Z,84.50
2022-09-27T12:25:54.083Z,84.80
2022-09-27T12:26:54.049Z,86.83
2022-09-27T12:27:54.039Z,89.28
2022-09-27T12:28:54.023Z,89.07
2022-09-27T12:29:54.022Z,88.67
2022-09-27T12:31:10.817Z,83.89
2022-09-27T12:31:55.032Z,83.28
2022-09-27T12:32:53.974Z,85.82
2022-09-27T12:33:53.977Z,90.29
2022-09-27T12:34:53.955Z,86.74
2022-09-27T12:35:53.953Z,81.52
2022-09-27T12:36:53.925Z,80.80
2022-09-27T12:37:53.949Z,78.17
2022-09-27T12:38:53.905Z,80.66
2022-09-27T12:39:53.896Z,79.25
2022-09-27T12:40:53.926Z,81.34
2022-09-27T12:41:53.895Z,77.08
2022-09-27T12:42:53.860Z,75.12
2022-09-27T12:43:53.888Z,73.90
2022-09-27T12:44:53.836Z,72.38
2022-09-27T12:45:53.827Z,75.12
2022-09-27T12:46:53.905Z,75.93
2022-09-27T12:47:53.805Z,75.79
2022-09-27T12:48:53.800Z,73.97
2022-09-27T12:49:56.463Z,71.23
2022-09-27T12:50:54.766Z,72.65
2022-09-27T12:51:53.757Z,72.92
2022-09-27T12:52:53.746Z,72.61